Tropical Cyclones
[Index]
Main Index Home Page Stock Weather Photos Extreme Storms Discussion Storm News and Storm Chasing Reports Tropical Cyclones / Hurricanes / Typhoons Weather Data and Links Wild Fires / Bushfires Weather Observation Techniques Weather Picture Catalogue Tornado Pictures and Reports Stock Video Footage and DVDs for sale
Season 2009-2010 Tropical Cyclone SEAN Track Map
Season 2009-2010 Summaries (Operational Data): [AU] [SIO] [SPAC] [SH]
<<- Previous TC | 2009-2010 Season | Next TC ->>

click for intensity scale information  Lat/long Grid: Show Hide

 Date Labels: Show Hide

Operational Tropical Cyclone Data : JTWC Advisories | BoM Warnings

Name: SEAN
Number: 1024

21 Apr 2010 05:00 UTC to 28 Apr 2010 18:00 UTC

    date/time    lat    long     hPa   cat  kts
2010-04-21 05   10.1   116.0                             
2010-04-21 12   10.3   116.4    1006         25          
2010-04-21 18   10.6   116.0    1005         25          
2010-04-22 00   11.7   116.0    1004         25          
2010-04-22 06   12.4   115.7    1004         25          
2010-04-22 12   12.8   115.4    1003         30          
2010-04-22 18   13.2   115.1    1003         30          
2010-04-23 00   13.6   114.0     995    1    45          
2010-04-23 06   14.0   114.0     990    2    50          
2010-04-23 12   14.4   113.7     990    2    50          
2010-04-23 18   14.9   113.4     987    2    55          
2010-04-24 00   15.5   113.0     988    2    55          
2010-04-24 06   15.9   112.6     988    2    55          
2010-04-24 12   17.1   112.5     990    2    50          
2010-04-24 18   17.8   112.3     990    2    50          
2010-04-25 00   17.5   111.3     996    1    40          
2010-04-25 06   18.1   110.5    1000         30          
2010-04-25 12   18.5   109.9     998                     
2010-04-25 18   18.4   108.7    1004         22          
2010-04-26 00   18.3   107.3    1004         22          
2010-04-26 06   18.1   105.5    1004         22          
2010-04-26 12   18.4   103.3    1004         22          
2010-04-26 18   18.7   101.1    1004         22          
2010-04-27 00   18.9    99.1    1004         22          
2010-04-27 06   18.9    97.6    1004         22          
2010-04-27 12   19.0    95.8    1004         22          
2010-04-27 18   19.1    94.5    1004         22          
2010-04-28 00   19.1    93.0    1004         22          
2010-04-28 06   18.9    92.1    1004         22          
2010-04-28 12   18.2    90.9    1004         22          
2010-04-28 18   17.5    89.9    1007         18          
Winds are 10-min average.

Tropical cyclone tracks developed by Michael Bath using operational warnings and advisories and Google Maps.


[Australian Severe Weather index] [Copyright Notice] [Email Contacts] [Search This Site] [Privacy Policy]
Document: tropical_cyclone_sean.htm Updated: 28 May 2013